Terminal Aerodrome Forecast
Issued by NWS Amarillo, TX

Home | Current Version | Previous Version | Text Only | Print | Product List | Glossary On
Versions: 1 2 3 4 5 6 7 8 9 10 11 12 13 14 15 16 17 18
308
FTUS44 KAMA 241721
TAFGUY
TAF
KGUY 241721Z 2418/2518 33020G33KT P6SM BKN040
      TEMPO 2418/2420 6SM -RA
     FM250100 34025G40KT P6SM SCT250
     FM250800 33013KT P6SM SKC=

USA.gov is the U.S. government's official web portal to all federal, state and local government web resources and services.